Sunday, December 17, 2017, 9:59 PM EST
Back to Local

KPHL, Philadelphia International Airpt

Location: Philadelphia, PA, United States Lat: 39.867
Local Time: 9:59 PM EST ( 2:59 GMT) Lon: -75.233
Time Zone: US/Eastern Elev: 19 ft

Show me the last for .
Show Coded

Time T Td Feel RH Dir Speed Gust Alt SLP Vis Weather Sky Remarks
2017-12-17 20:54 39 30 34 69 80° 7 - 30.22 30.22 10 BKN120 OVC250 None
2017-12-17 19:54 39 29 35 66 60° 6 - 30.23 30.22 10 BKN110 OVC250 None
2017-12-17 18:54 40 30 36 67 80° 6 - 30.25 30.24 10 BKN180 OVC250 6-hr Min Temp (7pm): 39.9°F
6-hr Max Temp (7pm): 44.1°F
2017-12-17 17:54 41 29 38 61 60° 5 - 30.24 30.24 10 BKN180 OVC250 None
2017-12-17 16:54 42 29 39 59 40° 5 - 30.22 30.22 10 BKN180 OVC250 None
2017-12-17 15:54 43 28 - 55 - Calm - 30.22 30.21 10 BKN180 OVC260 None
2017-12-17 14:54 44 28 - 53 - Calm - 30.22 30.21 10 BKN180 OVC260 None
2017-12-17 13:54 43 27 - 52 - Calm - 30.22 30.22 10 BKN160 BKN210 OVC260 None
2017-12-17 12:54 42 28 - 57 - Calm - 30.24 30.24 10 FEW210 OVC260 6-hr Min Temp (1pm): 32.0°F
6-hr Max Temp (1pm): 43.0°F
2017-12-17 11:54 41 27 38 57 100° 5 - 30.27 30.27 10 FEW220 BKN260 None
2017-12-17 10:54 40 27 36 59 60° 6 - 30.29 30.29 10 FEW230 BKN260 None
2017-12-17 09:54 37 25 32 61 80° 7 - 30.29 30.29 10 FEW220 BKN250 None
2017-12-17 08:54 35 26 30 69 70° 6 - 30.29 30.28 10 BKN250 None
2017-12-17 07:54 33 25 28 71 50° 6 - 30.28 30.28 10 BKN250 None
2017-12-17 06:54 32 25 26 74 70° 7 - 30.28 30.27 10 BKN220 6-hr Min Temp (7am): 30.0°F
6-hr Max Temp (7am): 37.0°F
2017-12-17 05:54 33 25 29 71 70° 5 - 30.26 30.25 10 BKN220 None
2017-12-17 04:54 31 25 25 78 70° 6 - 30.24 30.24 10 FEW055 FEW250 None
2017-12-17 03:54 32 26 26 78 70° 6 - 30.24 30.24 10 FEW055 FEW250 None
2017-12-17 02:54 35 26 - 69 - Calm - 30.24 30.24 10 FEW055 None
2017-12-17 01:54 36 28 33 72 270° 3 - 30.23 30.22 10 FEW055 None
2017-12-17 00:54 37 29 - 72 - Calm - 30.21 30.21 10 OVC055 6-hr Min Temp (1am): 36.0°F
6-hr Max Temp (1am): 39.0°F
2017-12-16 23:54 37 29 34 72 230° 3 - 30.21 30.21 10 OVC055 24-hr Min Temp (12am): 21.0°F
24-hr Max Temp (12am): 42.1°F
2017-12-16 22:54 38 27 33 64 200° 7 - 30.20 30.19 10 OVC055 None

Support USWX by starting your Amazon purchase here.